createdAt,value
2023-04-18T00:01:54.817Z,28.38
2023-04-18T00:04:22.206Z,18.08
2023-04-18T00:06:50.037Z,19.65
2023-04-18T00:09:17.018Z,22.48
2023-04-18T00:11:44.312Z,22.30
2023-04-18T00:14:12.295Z,22.08
2023-04-18T00:16:39.660Z,18.45
2023-04-18T00:19:06.757Z,19.95
2023-04-18T00:21:33.676Z,19.52
2023-04-18T00:24:00.637Z,20.95
2023-04-18T00:26:28.259Z,17.95
2023-04-18T00:28:56.243Z,16.40
2023-04-18T00:31:23.025Z,19.23
2023-04-18T00:33:50.093Z,19.13
2023-04-18T00:36:16.835Z,21.05
2023-04-18T00:38:43.642Z,17.17
2023-04-18T00:41:10.316Z,18.35
2023-04-18T00:43:37.469Z,18.70
2023-04-18T00:46:04.689Z,15.38
2023-04-18T00:48:31.696Z,17.00
2023-04-18T00:51:00.319Z,16.27
2023-04-18T00:53:28.246Z,16.15
2023-04-18T00:55:55.678Z,14.55
2023-04-18T00:58:23.490Z,15.27
2023-04-18T01:00:50.457Z,15.00
2023-04-18T01:03:18.691Z,19.20
2023-04-18T01:05:46.434Z,14.25
2023-04-18T01:08:14.819Z,12.13
2023-04-18T01:10:41.968Z,13.52
2023-04-18T01:13:13.469Z,18.55
2023-04-18T01:15:42.039Z,15.73
2023-04-18T01:18:10.282Z,17.92
2023-04-18T01:20:41.527Z,15.30
2023-04-18T01:23:10.510Z,14.23
2023-04-18T01:25:37.404Z,17.60
2023-04-18T01:28:05.010Z,13.73
2023-04-18T01:30:33.220Z,14.70
2023-04-18T01:33:05.553Z,12.88
2023-04-18T01:38:00.282Z,11.77
2023-04-18T01:40:27.384Z,15.65
2023-04-18T01:42:56.665Z,14.65
2023-04-18T01:45:23.506Z,12.95
2023-04-18T01:47:50.448Z,13.43
2023-04-18T01:50:17.307Z,14.00
2023-04-18T01:52:44.005Z,15.55
2023-04-18T01:55:11.232Z,12.68
2023-04-18T01:57:38.500Z,14.57
2023-04-18T02:00:06.756Z,15.02
2023-04-18T02:02:34.898Z,17.05
2023-04-18T02:05:02.397Z,13.65
2023-04-18T02:07:29.299Z,12.75
2023-04-18T02:09:56.230Z,14.25
2023-04-18T02:12:26.604Z,13.98
2023-04-18T02:14:53.786Z,13.65
2023-04-18T02:17:24.032Z,12.63
2023-04-18T02:19:51.518Z,16.42
2023-04-18T02:22:18.800Z,13.55
2023-04-18T02:24:47.111Z,14.45
2023-04-18T02:27:14.094Z,12.23
2023-04-18T02:29:41.329Z,17.33
2023-04-18T02:32:09.379Z,13.85
2023-04-18T02:34:37.485Z,11.93
2023-04-18T02:37:05.031Z,12.50
2023-04-18T02:39:32.023Z,14.27
2023-04-18T02:41:59.127Z,12.80
2023-04-18T02:44:25.928Z,12.45
2023-04-18T02:46:52.854Z,15.27
2023-04-18T02:49:20.079Z,14.80
2023-04-18T02:51:49.820Z,13.00
2023-04-18T02:54:16.826Z,13.90
2023-04-18T02:56:43.810Z,14.48
2023-04-18T02:59:11.123Z,16.25
2023-04-18T03:01:38.045Z,17.23
2023-04-18T03:04:05.087Z,13.70
2023-04-18T03:06:33.102Z,15.45
2023-04-18T03:09:00.357Z,15.02
2023-04-18T03:11:27.535Z,15.10
2023-04-18T03:13:54.691Z,14.70
2023-04-18T03:16:21.816Z,11.63
2023-04-18T03:18:48.726Z,15.68
2023-04-18T03:21:15.670Z,11.80
2023-04-18T03:23:42.460Z,14.38
2023-04-18T03:26:09.276Z,15.82
2023-04-18T03:28:36.558Z,17.23
2023-04-18T03:31:03.470Z,16.77
2023-04-18T03:33:30.444Z,13.73
2023-04-18T03:35:57.638Z,12.95
2023-04-18T03:38:24.591Z,13.40
2023-04-18T03:40:51.418Z,13.07
2023-04-18T03:43:21.020Z,13.75
2023-04-18T03:45:48.161Z,17.35
2023-04-18T03:48:15.032Z,13.18
2023-04-18T03:50:41.981Z,15.65
2023-04-18T03:53:08.770Z,14.00
2023-04-18T03:55:35.618Z,12.35
2023-04-18T03:58:02.615Z,18.55
2023-04-18T04:00:29.461Z,17.75
2023-04-18T04:02:56.726Z,17.48
2023-04-18T04:05:23.754Z,15.80
2023-04-18T04:07:50.615Z,16.38
2023-04-18T04:10:18.522Z,18.65
2023-04-18T04:12:46.280Z,15.05
2023-04-18T04:15:13.075Z,20.30
2023-04-18T04:17:40.069Z,19.95
2023-04-18T04:20:09.029Z,16.42
2023-04-18T04:22:37.428Z,19.30
2023-04-18T04:25:05.373Z,17.35
2023-04-18T04:27:34.109Z,15.25
2023-04-18T04:30:02.857Z,17.38
2023-04-18T04:32:30.907Z,20.10
2023-04-18T04:35:00.726Z,16.33
2023-04-18T04:37:28.684Z,18.17
2023-04-18T04:39:56.590Z,15.07
2023-04-18T04:42:27.648Z,14.60
2023-04-18T04:44:54.459Z,15.88
2023-04-18T04:47:25.567Z,15.68
2023-04-18T04:49:52.374Z,16.10
2023-04-18T04:52:19.128Z,17.77
2023-04-18T04:54:46.721Z,17.73
2023-04-18T04:57:14.192Z,18.02
2023-04-18T04:59:41.409Z,17.52
2023-04-18T05:02:08.401Z,16.83
2023-04-18T05:04:35.471Z,14.68
2023-04-18T05:07:02.404Z,14.88
2023-04-18T05:09:29.423Z,20.52
2023-04-18T05:11:56.207Z,17.65
2023-04-18T05:14:23.233Z,16.33
2023-04-18T05:16:50.418Z,19.60
2023-04-18T05:19:17.237Z,15.15
2023-04-18T05:21:43.995Z,15.38
2023-04-18T05:24:11.055Z,15.13
2023-04-18T05:26:38.247Z,16.73
2023-04-18T05:29:05.091Z,18.25
2023-04-18T05:31:32.358Z,16.77
2023-04-18T05:33:59.231Z,14.73
2023-04-18T05:36:26.762Z,17.10
2023-04-18T05:38:54.045Z,15.65
2023-04-18T05:41:20.946Z,16.98
2023-04-18T05:44:01.723Z,18.35
2023-04-18T05:46:31.440Z,17.45
2023-04-18T05:48:58.378Z,18.55
2023-04-18T05:51:25.194Z,16.40
2023-04-18T05:53:51.999Z,19.40
2023-04-18T05:56:20.736Z,18.85
2023-04-18T05:58:47.926Z,15.50
2023-04-18T06:01:14.731Z,18.08
2023-04-18T06:03:42.156Z,19.55
2023-04-18T06:06:09.592Z,18.23
2023-04-18T06:08:38.607Z,18.10
2023-04-18T06:11:05.796Z,18.88
2023-04-18T06:13:32.610Z,15.43
2023-04-18T06:16:01.187Z,18.92
2023-04-18T06:18:28.105Z,17.20
2023-04-18T06:20:55.329Z,18.90
2023-04-18T06:23:21.996Z,16.60
2023-04-18T06:25:48.782Z,14.70
2023-04-18T06:28:16.120Z,21.15
2023-04-18T06:30:43.097Z,18.25
2023-04-18T06:33:11.046Z,16.02
2023-04-18T06:35:38.053Z,15.82
2023-04-18T06:38:05.306Z,15.95
2023-04-18T06:40:33.442Z,19.15
2023-04-18T06:43:00.269Z,16.40
2023-04-18T06:45:27.301Z,14.60
2023-04-18T06:47:54.375Z,15.65
2023-04-18T06:50:21.429Z,17.67
2023-04-18T06:52:48.164Z,17.98
2023-04-18T06:55:15.197Z,16.60
2023-04-18T06:57:42.581Z,13.73
2023-04-18T07:00:10.536Z,18.27
2023-04-18T07:02:39.164Z,14.93
2023-04-18T07:05:07.133Z,13.52
2023-04-18T07:07:35.200Z,14.93
2023-04-18T07:10:02.381Z,14.18
2023-04-18T07:12:29.244Z,13.82
2023-04-18T07:14:56.290Z,15.45
2023-04-18T07:17:23.182Z,14.07
2023-04-18T07:19:51.358Z,14.30
2023-04-18T07:22:18.153Z,13.02
2023-04-18T07:24:44.993Z,17.30
2023-04-18T07:27:11.787Z,14.10
2023-04-18T07:29:38.626Z,16.80
2023-04-18T07:32:07.620Z,13.95
2023-04-18T07:34:36.200Z,16.02
2023-04-18T07:37:03.622Z,14.82
2023-04-18T07:39:31.952Z,14.02
2023-04-18T07:41:58.989Z,15.13
2023-04-18T07:44:30.080Z,11.93
2023-04-18T07:46:57.236Z,13.43
2023-04-18T07:49:24.089Z,11.85
2023-04-18T07:51:51.171Z,15.23
2023-04-18T07:54:17.964Z,12.43
2023-04-18T07:56:45.877Z,11.85
2023-04-18T07:59:12.851Z,14.82
2023-04-18T08:01:39.852Z,13.73
2023-04-18T08:04:06.815Z,14.70
2023-04-18T08:06:35.061Z,11.15
2023-04-18T08:09:05.789Z,11.48
2023-04-18T08:11:33.612Z,15.25
2023-04-18T08:14:02.432Z,11.70
2023-04-18T08:16:29.320Z,11.48
2023-04-18T08:18:57.172Z,13.52
2023-04-18T08:21:23.916Z,10.23
2023-04-18T08:23:50.584Z,12.68
2023-04-18T08:26:17.510Z,13.43
2023-04-18T08:28:46.561Z,12.80
2023-04-18T08:31:15.146Z,11.55
2023-04-18T08:33:42.507Z,10.93
2023-04-18T08:36:09.943Z,11.48
2023-04-18T08:38:36.753Z,11.77
2023-04-18T08:41:03.541Z,13.88
2023-04-18T08:43:31.659Z,11.50
2023-04-18T08:46:00.149Z,9.70
2023-04-18T08:48:30.676Z,9.00
2023-04-18T08:50:59.027Z,9.82
2023-04-18T08:53:26.982Z,9.63
2023-04-18T08:55:56.584Z,9.00
2023-04-18T08:58:25.725Z,9.85
2023-04-18T09:00:54.541Z,11.93
2023-04-18T09:03:40.466Z,12.15
2023-04-18T09:06:13.852Z,10.55
2023-04-18T09:08:43.438Z,9.55
2023-04-18T09:11:29.517Z,9.50
2023-04-18T09:13:59.199Z,8.75
2023-04-18T09:16:28.240Z,9.52
2023-04-18T09:19:13.876Z,8.98
2023-04-18T09:21:42.779Z,8.05
2023-04-18T09:24:30.690Z,11.05
2023-04-18T09:27:00.085Z,8.10
2023-04-18T09:29:47.492Z,8.32
2023-04-18T09:32:30.325Z,9.55
2023-04-18T09:35:00.960Z,7.40
2023-04-18T09:37:29.735Z,8.40
2023-04-18T09:39:56.579Z,7.47
2023-04-18T09:42:24.106Z,9.57
2023-04-18T09:45:13.375Z,10.52
2023-04-18T09:47:40.314Z,9.07
2023-04-18T09:50:09.720Z,9.52
2023-04-18T09:52:39.465Z,8.82
2023-04-18T09:55:08.677Z,10.73
2023-04-18T09:57:37.114Z,9.65
2023-04-18T10:00:21.770Z,9.27
2023-04-18T10:02:50.515Z,9.57
2023-04-18T10:05:21.452Z,9.65
2023-04-18T10:07:50.535Z,9.52
2023-04-18T10:10:18.156Z,9.10
2023-04-18T10:12:47.981Z,10.20
2023-04-18T10:15:15.784Z,8.20
2023-04-18T10:18:04.602Z,9.40
2023-04-18T10:20:35.401Z,7.72
2023-04-18T10:23:31.507Z,10.50
2023-04-18T10:26:02.472Z,9.20
2023-04-18T10:28:51.725Z,9.25
2023-04-18T10:31:18.738Z,6.70
2023-04-18T10:34:03.234Z,8.35
2023-04-18T10:36:31.367Z,8.45
2023-04-18T10:39:19.744Z,7.57
2023-04-18T10:41:51.175Z,7.30
2023-04-18T10:44:23.036Z,8.60
2023-04-18T10:46:53.402Z,7.38
2023-04-18T10:49:27.824Z,7.93
2023-04-18T10:51:58.759Z,7.60
2023-04-18T10:54:58.868Z,9.20
2023-04-18T10:57:39.913Z,9.80
2023-04-18T11:00:11.472Z,6.10
2023-04-18T11:02:39.208Z,6.90
2023-04-18T11:05:08.333Z,8.63
2023-04-18T11:07:46.330Z,7.65
2023-04-18T11:10:16.041Z,7.57
2023-04-18T11:12:42.846Z,7.65
2023-04-18T11:15:17.781Z,9.95
2023-04-18T11:17:44.833Z,9.07
2023-04-18T11:20:14.317Z,9.00
2023-04-18T11:22:44.145Z,11.57
2023-04-18T11:25:11.266Z,11.90
2023-04-18T11:27:45.497Z,10.43
2023-04-18T11:30:13.674Z,8.30
2023-04-18T11:32:40.923Z,10.65
2023-04-18T11:35:14.227Z,9.73
2023-04-18T11:37:42.296Z,10.40
2023-04-18T11:40:10.053Z,10.38
2023-04-18T11:42:39.181Z,9.35
2023-04-18T11:45:13.416Z,11.63
2023-04-18T11:47:44.084Z,9.93
2023-04-18T11:50:12.769Z,9.95
2023-04-18T11:52:41.930Z,9.63
2023-04-18T11:55:18.537Z,9.68
2023-04-18T11:57:59.584Z,11.38
2023-04-18T12:00:41.902Z,9.77
2023-04-18T12:05:46.402Z,11.10
2023-04-18T12:08:19.089Z,10.40
2023-04-18T12:10:47.704Z,11.35
2023-04-18T12:13:15.301Z,12.75
2023-04-18T12:15:44.914Z,10.40
2023-04-18T12:18:14.059Z,11.57
2023-04-18T12:20:50.606Z,13.05
2023-04-18T12:23:39.867Z,15.05
2023-04-18T12:26:08.312Z,11.70
2023-04-18T12:28:35.982Z,12.85
2023-04-18T12:31:05.412Z,14.75
2023-04-18T12:33:32.145Z,14.32
2023-04-18T12:35:59.433Z,12.90
2023-04-18T12:38:27.240Z,14.55
2023-04-18T12:40:54.195Z,13.20
2023-04-18T12:43:21.097Z,13.32
2023-04-18T12:45:49.527Z,14.85
2023-04-18T12:48:16.496Z,13.02
2023-04-18T12:50:43.245Z,12.70
2023-04-18T12:53:10.109Z,13.52
2023-04-18T12:55:37.345Z,14.32
2023-04-18T12:58:04.496Z,14.82
2023-04-18T13:00:32.777Z,14.68
2023-04-18T13:02:59.918Z,13.75
2023-04-18T13:05:31.633Z,16.35
2023-04-18T13:08:15.143Z,13.80
2023-04-18T13:10:44.097Z,13.13
2023-04-18T13:13:11.064Z,15.48
2023-04-18T13:15:38.152Z,18.52
2023-04-18T13:18:06.745Z,12.98
2023-04-18T13:20:36.974Z,14.55
2023-04-18T13:23:04.026Z,13.60
2023-04-18T13:25:30.803Z,14.05
2023-04-18T13:27:58.609Z,13.77
2023-04-18T13:30:25.850Z,16.45
2023-04-18T13:32:53.191Z,15.55
2023-04-18T13:35:20.172Z,18.92
2023-04-18T13:37:47.241Z,16.00
2023-04-18T13:40:14.434Z,15.60
2023-04-18T13:42:41.411Z,15.50
2023-04-18T13:45:10.096Z,17.85
2023-04-18T13:47:37.586Z,15.10
2023-04-18T13:50:06.132Z,15.43
2023-04-18T13:52:33.115Z,15.90
2023-04-18T13:54:59.929Z,14.98
2023-04-18T13:57:28.653Z,14.43
2023-04-18T13:59:55.581Z,16.08
2023-04-18T14:02:22.704Z,14.77
2023-04-18T14:04:49.841Z,17.67
2023-04-18T14:07:16.754Z,15.00
2023-04-18T14:09:43.692Z,16.95
2023-04-18T14:12:10.692Z,17.38
2023-04-18T14:14:37.529Z,15.45
2023-04-18T14:17:04.632Z,16.00
2023-04-18T14:19:31.626Z,15.45
2023-04-18T14:21:58.577Z,14.10
2023-04-18T14:24:26.951Z,14.98
2023-04-18T14:26:53.793Z,13.63
2023-04-18T14:29:22.382Z,13.93
2023-04-18T14:31:49.264Z,16.17
2023-04-18T14:34:16.117Z,13.55
2023-04-18T14:36:42.923Z,16.65
2023-04-18T14:39:10.321Z,16.90
2023-04-18T14:41:37.136Z,14.90
2023-04-18T14:44:04.208Z,15.90
2023-04-18T14:46:31.613Z,14.52
2023-04-18T14:48:58.665Z,14.02
2023-04-18T14:51:27.749Z,14.75
2023-04-18T14:53:55.860Z,15.02
2023-04-18T14:56:24.500Z,15.48
2023-04-18T14:58:51.595Z,14.35
2023-04-18T15:01:20.835Z,14.07
2023-04-18T15:03:50.141Z,13.88
2023-04-18T15:06:17.148Z,15.65
2023-04-18T15:08:47.205Z,16.52
2023-04-18T15:11:14.206Z,16.70
2023-04-18T15:13:41.119Z,15.02
2023-04-18T15:16:08.446Z,14.13
2023-04-18T15:18:37.049Z,13.95
2023-04-18T15:21:05.544Z,14.60
2023-04-18T15:23:32.384Z,15.63
2023-04-18T15:25:59.786Z,13.55
2023-04-18T15:28:26.722Z,16.27
2023-04-18T15:30:53.571Z,13.63
2023-04-18T15:33:20.635Z,14.65
2023-04-18T15:35:48.088Z,13.60
2023-04-18T15:38:15.080Z,18.15
2023-04-18T15:40:43.661Z,13.40
2023-04-18T15:43:10.553Z,13.68
2023-04-18T15:45:37.351Z,12.60
2023-04-18T15:48:04.508Z,13.18
2023-04-18T15:50:33.331Z,16.02
2023-04-18T15:53:00.763Z,12.88
2023-04-18T15:55:27.936Z,12.18
2023-04-18T15:57:55.978Z,11.70
2023-04-18T16:00:23.440Z,12.30
2023-04-18T16:02:50.961Z,12.60
2023-04-18T16:05:18.703Z,12.95
2023-04-18T16:07:45.803Z,13.15
2023-04-18T16:10:12.999Z,12.43
2023-04-18T16:12:40.414Z,12.18
2023-04-18T16:15:09.020Z,13.50
2023-04-18T16:17:36.706Z,14.55
2023-04-18T16:20:03.961Z,12.63
2023-04-18T16:22:30.995Z,12.18
2023-04-18T16:24:57.926Z,10.88
2023-04-18T16:27:24.734Z,12.00
2023-04-18T16:29:53.885Z,13.95
2023-04-18T16:32:20.923Z,11.82
2023-04-18T16:34:48.482Z,11.90
2023-04-18T16:37:15.582Z,10.90
2023-04-18T16:39:42.375Z,11.68
2023-04-18T16:42:09.421Z,10.43
2023-04-18T16:44:36.165Z,10.88
2023-04-18T16:47:05.197Z,13.40
2023-04-18T16:49:32.539Z,11.77
2023-04-18T16:51:59.263Z,15.43
2023-04-18T16:54:26.272Z,10.38
2023-04-18T16:56:53.227Z,13.65
2023-04-18T16:59:20.292Z,10.13
2023-04-18T17:01:47.294Z,11.73
2023-04-18T17:04:15.333Z,11.23
2023-04-18T17:06:43.757Z,12.23
2023-04-18T17:09:13.538Z,10.88
2023-04-18T17:11:41.503Z,18.13
2023-04-18T17:14:08.750Z,13.23
2023-04-18T17:16:38.717Z,12.63
2023-04-18T17:19:06.445Z,10.50
2023-04-18T17:21:34.986Z,11.95
2023-04-18T17:24:04.090Z,9.95
2023-04-18T17:26:31.478Z,12.25
2023-04-18T17:28:59.613Z,10.63
2023-04-18T17:31:27.002Z,12.80
2023-04-18T17:33:55.032Z,15.27
2023-04-18T17:36:21.824Z,11.70
2023-04-18T17:38:51.623Z,12.70
2023-04-18T17:41:19.920Z,10.35
2023-04-18T17:43:47.569Z,12.93
2023-04-18T17:46:14.920Z,12.65
2023-04-18T17:48:41.832Z,11.48
2023-04-18T17:51:08.714Z,10.57
2023-04-18T17:53:35.558Z,11.57
2023-04-18T17:56:03.695Z,10.70
2023-04-18T17:58:31.294Z,10.77
2023-04-18T18:00:58.307Z,13.48
2023-04-18T18:03:25.539Z,13.65
2023-04-18T18:05:55.367Z,12.70
2023-04-18T18:08:22.815Z,14.35
2023-04-18T18:10:52.204Z,14.05
2023-04-18T18:13:18.981Z,13.15
2023-04-18T18:15:46.039Z,13.25
2023-04-18T18:18:13.048Z,11.27
2023-04-18T18:20:42.801Z,12.50
2023-04-18T18:23:09.858Z,12.68
2023-04-18T18:25:37.863Z,19.85
2023-04-18T18:28:04.908Z,13.55
2023-04-18T18:30:31.825Z,13.38
2023-04-18T18:32:59.068Z,13.13
2023-04-18T18:35:26.283Z,15.07
2023-04-18T18:37:53.062Z,12.27
2023-04-18T18:40:19.977Z,11.18
2023-04-18T18:42:46.948Z,12.02
2023-04-18T18:45:13.771Z,12.77
2023-04-18T18:47:40.906Z,13.38
2023-04-18T18:50:08.315Z,17.48
2023-04-18T18:52:35.489Z,17.13
2023-04-18T18:55:03.543Z,12.13
2023-04-18T18:57:30.840Z,12.10
2023-04-18T18:59:57.624Z,11.82
2023-04-18T19:02:24.639Z,15.57
2023-04-18T19:04:51.850Z,16.25
2023-04-18T19:07:18.724Z,12.25
2023-04-18T19:09:46.414Z,11.75
2023-04-18T19:12:13.537Z,12.57
2023-04-18T19:14:42.360Z,13.35
2023-04-18T19:17:09.339Z,14.25
2023-04-18T19:19:36.287Z,14.45
2023-04-18T19:22:03.357Z,15.10
2023-04-18T19:24:31.833Z,12.82
2023-04-18T19:26:59.669Z,14.23
2023-04-18T19:29:26.365Z,12.48
2023-04-18T19:31:53.065Z,13.07
2023-04-18T19:34:20.027Z,13.38
2023-04-18T19:36:46.862Z,13.02
2023-04-18T19:39:13.927Z,12.85
2023-04-18T19:41:41.881Z,10.88
2023-04-18T19:44:08.726Z,11.10
2023-04-18T19:46:35.664Z,14.57
2023-04-18T19:49:02.619Z,13.13
2023-04-18T19:51:29.471Z,11.77
2023-04-18T19:53:56.489Z,13.80
2023-04-18T19:56:23.510Z,11.40
2023-04-18T19:58:51.030Z,13.48
2023-04-18T20:01:19.396Z,11.80
2023-04-18T20:03:47.118Z,10.15
2023-04-18T20:06:14.455Z,11.40
2023-04-18T20:08:41.650Z,12.05
2023-04-18T20:11:10.092Z,10.40
2023-04-18T20:13:37.606Z,9.75
2023-04-18T20:16:05.556Z,12.60
2023-04-18T20:18:33.946Z,13.13
2023-04-18T20:21:01.302Z,9.82
2023-04-18T20:23:28.187Z,10.38
2023-04-18T20:25:55.071Z,9.18
2023-04-18T20:28:21.945Z,10.50
2023-04-18T20:30:48.908Z,11.90
2023-04-18T20:33:15.818Z,9.75
2023-04-18T20:35:44.181Z,10.05
2023-04-18T20:38:13.886Z,10.32
2023-04-18T20:40:45.069Z,11.27
2023-04-18T20:43:13.072Z,8.85
2023-04-18T20:45:43.043Z,11.45
2023-04-18T20:48:10.249Z,10.57
2023-04-18T20:50:37.126Z,10.50
2023-04-18T20:53:04.140Z,9.32
2023-04-18T20:55:31.145Z,10.82
2023-04-18T20:57:58.848Z,16.70
2023-04-18T21:00:25.853Z,8.77
2023-04-18T21:02:52.836Z,11.15
2023-04-18T21:05:19.901Z,9.52
2023-04-18T21:07:46.825Z,11.23
2023-04-18T21:10:14.992Z,10.23
2023-04-18T21:12:42.306Z,12.98
2023-04-18T21:15:09.366Z,13.60
2023-04-18T21:17:36.226Z,10.32
2023-04-18T21:20:03.574Z,10.68
2023-04-18T21:22:31.298Z,11.13
2023-04-18T21:24:58.321Z,10.40
2023-04-18T21:27:26.429Z,11.48
2023-04-18T21:29:53.232Z,10.40
2023-04-18T21:32:19.959Z,10.00
2023-04-18T21:34:46.807Z,12.30
2023-04-18T21:37:13.981Z,12.57
2023-04-18T21:39:42.643Z,10.07
2023-04-18T21:42:11.588Z,10.60
2023-04-18T21:44:38.384Z,9.85
2023-04-18T21:47:05.502Z,11.80
2023-04-18T21:49:34.976Z,9.20
2023-04-18T21:52:01.707Z,11.70
2023-04-18T21:54:28.470Z,8.90
2023-04-18T21:56:55.177Z,9.85
2023-04-18T21:59:21.901Z,10.77
2023-04-18T22:01:48.693Z,11.57
2023-04-18T22:04:16.097Z,9.77
2023-04-18T22:06:43.575Z,12.38
2023-04-18T22:09:11.786Z,11.55
2023-04-18T22:11:38.622Z,11.55
2023-04-18T22:14:05.917Z,9.07
2023-04-18T22:16:33.532Z,12.43
2023-04-18T22:19:02.314Z,12.85
2023-04-18T22:21:29.012Z,11.63
2023-04-18T22:23:56.036Z,12.48
2023-04-18T22:26:23.910Z,10.32
2023-04-18T22:28:50.801Z,10.38
2023-04-18T22:31:17.666Z,12.90
2023-04-18T22:33:45.734Z,9.63
2023-04-18T22:36:12.536Z,9.23
2023-04-18T22:38:39.425Z,13.93
2023-04-18T22:41:06.202Z,12.30
2023-04-18T22:43:33.146Z,11.30
2023-04-18T22:45:59.944Z,12.70
2023-04-18T22:48:26.676Z,10.68
2023-04-18T22:50:53.789Z,10.48
2023-04-18T22:53:20.757Z,11.52
2023-04-18T22:55:47.518Z,11.02
2023-04-18T22:58:14.580Z,11.88
2023-04-18T23:00:41.377Z,10.10
2023-04-18T23:03:08.894Z,10.73
2023-04-18T23:05:36.052Z,11.77
2023-04-18T23:08:03.111Z,11.15
2023-04-18T23:10:30.560Z,11.65
2023-04-18T23:12:57.533Z,10.38
2023-04-18T23:15:28.967Z,10.73
2023-04-18T23:17:55.991Z,11.93
2023-04-18T23:20:24.085Z,10.13
2023-04-18T23:22:52.031Z,11.05
2023-04-18T23:25:20.051Z,11.30
2023-04-18T23:27:49.474Z,12.02
2023-04-18T23:30:16.616Z,11.95
2023-04-18T23:32:44.633Z,12.75
2023-04-18T23:35:13.363Z,10.82
2023-04-18T23:37:40.292Z,12.07
2023-04-18T23:40:08.336Z,11.52
2023-04-18T23:42:35.777Z,12.45
2023-04-18T23:45:04.558Z,13.07
2023-04-18T23:47:31.684Z,10.57
2023-04-18T23:49:58.620Z,12.00
2023-04-18T23:52:26.924Z,11.20
2023-04-18T23:54:53.771Z,11.95
2023-04-18T23:57:20.684Z,11.02
2023-04-18T23:59:47.847Z,11.40
